KPLN/PLN METAR and TAF weather

Enter ICAO airport designator
Station Type Date Time Source
KPLN METAR 2023/02/06 19:54 UTC NOAA

KPLN 061954Z AUTO 13007KT 10SM CLR M02/M09 A3017 RMK AO2 SLP228 T10221089


Station Type Date Time Source
KPLN Decoded METAR 2023/02/06 19:54 UTC NOAA

PELLSTON REGIONAL AIRPORT, MI, United States (KPLN) 45-34N 084-48W 217M
Feb 06, 2023 - 02:54 PM EST / 2023.02.06 1954 UTC
Wind: from the SE (130 degrees) at 8 MPH (7 KT):0
Visibility: 10 mile(s):0
Sky conditions: clear
Temperature: 28.0 F (-2.2 C)
Windchill: 19 F (-7 C):1
Dew Point: 16.0 F (-8.9 C)
Relative Humidity: 60%
Pressure (altimeter): 30.17 in. Hg (1021 hPa)
ob: KPLN 061954Z AUTO 13007KT 10SM CLR M02/M09 A3017 RMK AO2 SLP228 T10221089
cycle: 20

Station Type Date Time Source
KPLN TAF 2023/02/06 18:24 UTC NOAA

TAF KPLN 061822Z 0618/0718 13010KT P6SM SCT017
FM070800 16015G35KT P6SM BKN030 WS020/17050KT
FM071200 18013G35KT 4SM -SN OVC010 WS020/21050KT

Example: see airport list